Time;durP1;ratioP1;P1;durP2;ratioP2;P2;SDS_P1;SDS_P2;PMS_P1;PMS_P2;Temp;Humidity;BMP_temperature;BMP_pressure;BME280_temperature;BME280_humidity;BME280_pressure;Samples;Min_cycle;Max_cycle;Signal;HPM_P1;HPM_P2
2024/03/01 00:01:17;;;;;;;1.05;0.70;;;8.50;92.60;;;;;;5156160;27;20043;-73
2024/03/01 00:03:42;;;;;;;1.08;0.70;;;8.50;92.50;;;;;;5137318;27;20389;-72
2024/03/01 00:06:08;;;;;;;1.30;0.73;;;8.60;92.50;;;;;;5137037;27;20435;-72
2024/03/01 00:08:34;;;;;;;1.23;0.50;;;8.60;92.50;;;;;;5119826;27;20081;-74
2024/03/01 00:10:59;;;;;;;1.45;0.70;;;8.60;92.50;;;;;;5119673;27;20039;-75
2024/03/01 00:13:25;;;;;;;0.65;0.60;;;8.60;92.40;;;;;;5118197;27;20039;-72
2024/03/01 00:15:51;;;;;;;0.93;0.55;;;8.60;92.40;;;;;;5136693;27;20039;-72
2024/03/01 00:18:17;;;;;;;0.82;0.60;;;8.60;92.40;;;;;;5102625;27;20038;-73
2024/03/01 00:20:42;;;;;;;0.95;0.55;;;8.60;92.40;;;;;;5101243;27;20474;-72
2024/03/01 00:23:08;;;;;;;0.57;0.52;;;8.60;92.30;;;;;;5119858;27;20053;-73
2024/03/01 00:25:34;;;;;;;0.63;0.55;;;8.60;92.30;;;;;;5102485;27;20030;-74
2024/03/01 00:27:59;;;;;;;1.05;0.65;;;8.60;92.30;;;;;;5118003;27;20032;-73
2024/03/01 00:30:25;;;;;;;1.05;0.70;;;8.50;92.30;;;;;;5119663;27;20110;-75
2024/03/01 00:32:51;;;;;;;0.85;0.60;;;8.60;92.30;;;;;;5119293;27;20047;-72
2024/03/01 00:35:16;;;;;;;0.70;0.50;;;8.60;92.30;;;;;;5136462;27;20038;-74
2024/03/01 00:37:42;;;;;;;0.90;0.70;;;8.60;92.20;;;;;;5134426;27;20042;-74
2024/03/01 00:40:08;;;;;;;1.13;0.75;;;8.60;92.20;;;;;;5136950;27;20060;-73
2024/03/01 00:42:34;;;;;;;0.55;0.50;;;8.60;92.20;;;;;;5136460;27;20047;-73
2024/03/01 00:44:59;;;;;;;0.90;0.73;;;8.60;92.20;;;;;;5136487;27;20433;-73
2024/03/01 00:47:25;;;;;;;0.90;0.50;;;8.60;92.10;;;;;;5119230;27;20034;-73
2024/03/01 00:49:51;;;;;;;2.53;0.60;;;8.60;92.10;;;;;;5119131;27;20080;-73
2024/03/01 00:52:17;;;;;;;0.70;0.60;;;8.70;92.20;;;;;;5119415;27;20034;-73
2024/03/01 00:54:42;;;;;;;1.20;0.65;;;8.60;92.10;;;;;;5154797;27;20043;-73
2024/03/01 00:57:08;;;;;;;0.73;0.60;;;8.60;92.10;;;;;;5136256;27;20055;-73
2024/03/01 00:59:34;;;;;;;1.50;0.90;;;8.70;92.10;;;;;;5118674;27;20042;-73
2024/03/01 01:02:00;;;;;;;0.60;0.60;;;8.70;92.10;;;;;;5118625;27;20038;-73
2024/03/01 01:04:25;;;;;;;0.93;0.65;;;8.60;92.10;;;;;;5118645;27;20035;-73
2024/03/01 01:06:51;;;;;;;0.70;0.60;;;8.60;92.00;;;;;;5118569;27;20046;-73
2024/03/01 01:09:17;;;;;;;1.67;0.90;;;8.50;92.00;;;;;;5116869;27;20043;-74
2024/03/01 01:11:42;;;;;;;0.80;0.68;;;8.60;92.00;;;;;;5135473;27;20138;-73
2024/03/01 01:14:08;;;;;;;0.75;0.50;;;8.70;92.10;;;;;;5117682;27;20075;-73
2024/03/01 01:16:34;;;;;;;0.95;0.85;;;8.60;92.00;;;;;;5135697;27;20053;-73
2024/03/01 01:19:00;;;;;;;1.20;0.75;;;8.60;92.00;;;;;;5118497;27;20043;-74
2024/03/01 01:21:25;;;;;;;1.15;0.70;;;8.60;92.00;;;;;;5118463;27;20038;-74
2024/03/01 01:23:51;;;;;;;1.13;0.80;;;8.70;92.00;;;;;;5154154;27;20126;-74
2024/03/01 01:26:17;;;;;;;0.77;0.70;;;8.60;92.00;;;;;;5135608;27;20063;-74
2024/03/01 01:28:43;;;;;;;0.70;0.55;;;8.60;92.00;;;;;;5118344;27;20046;-73
2024/03/01 01:31:09;;;;;;;0.80;0.52;;;8.60;91.90;;;;;;5153813;27;20035;-74
2024/03/01 01:33:34;;;;;;;1.02;0.52;;;8.60;91.90;;;;;;5101314;27;20031;-73
2024/03/01 01:36:00;;;;;;;1.08;0.80;;;8.60;91.90;;;;;;5135243;27;20038;-73
2024/03/01 01:38:26;;;;;;;1.02;0.68;;;8.60;91.90;;;;;;5135040;27;20091;-73
2024/03/01 01:40:52;;;;;;;0.98;0.75;;;8.60;91.90;;;;;;5133678;27;20039;-73
2024/03/01 01:43:18;;;;;;;2.15;0.80;;;8.60;91.90;;;;;;5154214;27;20496;-73
2024/03/01 01:45:43;;;;;;;0.70;0.70;;;8.60;91.90;;;;;;5135016;27;20046;-73
2024/03/01 01:48:09;;;;;;;1.52;0.80;;;8.70;91.90;;;;;;5153776;27;20086;-74
2024/03/01 01:50:36;;;;;;;1.42;0.90;;;8.60;91.90;;;;;;5154156;27;20481;-74
2024/03/01 01:53:03;;;;;;;0.80;0.55;;;8.60;91.90;;;;;;5134889;27;20038;-73
2024/03/01 01:55:29;;;;;;;0.93;0.70;;;8.70;91.90;;;;;;5153330;27;20044;-73
2024/03/01 01:57:56;;;;;;;0.65;0.50;;;8.70;91.90;;;;;;5153682;27;20061;-73
2024/03/01 02:00:22;;;;;;;1.40;0.90;;;8.70;91.90;;;;;;5135470;27;20041;-73
2024/03/01 02:02:50;;;;;;;1.23;0.80;;;8.70;91.90;;;;;;5154014;27;20092;-73
2024/03/01 02:05:18;;;;;;;0.88;0.65;;;8.60;91.80;;;;;;5153938;27;20035;-74
2024/03/01 02:07:45;;;;;;;0.98;0.80;;;8.70;91.90;;;;;;5153815;27;20397;-73
2024/03/01 02:10:18;;;;;;;1.38;0.75;;;8.60;91.80;;;;;;5133444;27;20035;-74
2024/03/01 02:13:01;;;;;;;1.65;0.77;;;8.60;91.80;;;;;;5102467;27;20113;-73
2024/03/01 02:15:27;;;;;;;0.57;0.52;;;8.60;91.90;;;;;;5134623;27;20125;-73
2024/03/01 02:17:54;;;;;;;1.23;0.80;;;8.60;91.80;;;;;;5153762;27;20039;-73
2024/03/01 02:20:21;;;;;;;1.30;0.70;;;8.60;91.80;;;;;;5154488;27;20035;-73
2024/03/01 02:22:50;;;;;;;1.45;0.93;;;8.60;91.80;;;;;;5156808;27;20043;-73
2024/03/01 02:25:17;;;;;;;1.00;0.63;;;8.60;91.80;;;;;;5138104;27;20456;-74
2024/03/01 02:27:44;;;;;;;1.17;0.80;;;8.60;91.80;;;;;;5137986;27;20031;-74
2024/03/01 02:30:10;;;;;;;1.55;0.65;;;8.60;91.80;;;;;;5156816;27;20047;-73
2024/03/01 02:32:36;;;;;;;1.80;0.75;;;8.50;91.80;;;;;;5156585;27;20038;-74
2024/03/01 02:35:02;;;;;;;1.67;0.93;;;8.60;91.80;;;;;;5137851;27;20054;-74
2024/03/01 02:37:28;;;;;;;1.13;0.60;;;8.50;91.80;;;;;;5156452;27;20038;-73
2024/03/01 02:39:54;;;;;;;0.70;0.70;;;8.50;91.80;;;;;;5156829;27;20035;-73
2024/03/01 02:42:19;;;;;;;1.13;0.90;;;8.50;91.80;;;;;;5156373;27;20366;-73
2024/03/01 02:44:46;;;;;;;1.13;0.77;;;8.50;91.80;;;;;;5137092;27;20114;-74
2024/03/01 02:47:11;;;;;;;0.98;0.77;;;8.50;91.80;;;;;;5156593;27;20125;-73
2024/03/01 02:49:38;;;;;;;1.85;0.70;;;8.50;91.80;;;;;;5137820;27;20039;-73
2024/03/01 02:52:04;;;;;;;1.10;0.70;;;8.50;91.80;;;;;;5156370;27;20065;-73
2024/03/01 02:54:29;;;;;;;2.13;0.90;;;8.40;91.70;;;;;;5156229;27;20493;-73
2024/03/01 02:56:55;;;;;;;1.38;0.98;;;8.50;91.80;;;;;;5120801;27;20595;-73
2024/03/01 02:59:21;;;;;;;1.80;0.95;;;8.40;91.70;;;;;;5137492;27;20049;-75
2024/03/01 03:01:46;;;;;;;0.95;0.65;;;8.40;91.70;;;;;;5137756;27;20031;-73
2024/03/01 03:04:12;;;;;;;1.20;0.75;;;8.40;91.70;;;;;;5156214;27;20505;-73
2024/03/01 03:06:38;;;;;;;1.73;0.90;;;8.30;91.70;;;;;;5137192;27;20042;-73
2024/03/01 03:09:09;;;;;;;1.00;0.80;;;8.40;91.80;;;;;;5156274;27;20031;-74
2024/03/01 03:11:36;;;;;;;0.65;0.60;;;8.30;91.80;;;;;;5136586;27;20130;-73
2024/03/01 03:14:02;;;;;;;1.27;0.90;;;8.20;91.80;;;;;;5156121;27;20039;-73
2024/03/01 03:16:28;;;;;;;0.88;0.60;;;8.20;91.80;;;;;;5155861;27;20063;-73
2024/03/01 03:18:57;;;;;;;1.75;0.80;;;8.20;91.80;;;;;;5155772;27;20078;-73
2024/03/01 03:21:23;;;;;;;0.80;0.70;;;8.20;91.90;;;;;;5137438;27;20834;-73
2024/03/01 03:23:49;;;;;;;0.60;0.50;;;8.10;91.80;;;;;;5156189;27;20053;-73
2024/03/01 03:26:14;;;;;;;1.10;0.70;;;8.10;91.90;;;;;;5155821;27;20030;-73
2024/03/01 03:28:40;;;;;;;1.50;0.80;;;8.10;91.90;;;;;;5155793;27;20481;-74
2024/03/01 03:31:05;;;;;;;0.55;0.55;;;8.10;91.90;;;;;;5155315;27;20038;-73
2024/03/01 03:33:31;;;;;;;0.68;0.60;;;8.10;91.90;;;;;;5155854;27;20071;-74
2024/03/01 03:35:57;;;;;;;1.20;0.75;;;8.00;91.90;;;;;;5137260;27;20406;-73
2024/03/01 03:38:23;;;;;;;1.10;0.68;;;8.00;91.90;;;;;;5155729;27;20043;-73
2024/03/01 03:40:48;;;;;;;1.25;0.88;;;8.00;91.90;;;;;;5156180;27;20033;-73
2024/03/01 03:43:14;;;;;;;0.85;0.68;;;8.00;91.90;;;;;;5134770;27;20039;-73
2024/03/01 03:45:40;;;;;;;1.10;0.70;;;8.10;92.00;;;;;;5155617;27;20427;-73
2024/03/01 03:48:06;;;;;;;1.17;0.75;;;8.00;92.00;;;;;;5155872;27;20437;-74
2024/03/01 03:50:31;;;;;;;1.02;0.60;;;8.00;91.90;;;;;;5136820;27;20035;-73
2024/03/01 03:52:57;;;;;;;1.67;0.70;;;7.90;91.90;;;;;;5155496;27;20066;-74
2024/03/01 03:55:23;;;;;;;1.05;0.73;;;8.00;91.90;;;;;;5135907;27;20035;-73
2024/03/01 03:57:48;;;;;;;1.65;0.80;;;8.00;91.90;;;;;;5155787;27;20122;-73
2024/03/01 04:00:16;;;;;;;1.60;0.88;;;8.00;91.90;;;;;;5155388;27;20537;-74
2024/03/01 04:02:43;;;;;;;1.20;0.80;;;8.00;91.80;;;;;;5136406;27;20874;-74
2024/03/01 04:05:09;;;;;;;1.35;0.80;;;8.00;91.80;;;;;;5155499;27;20034;-73
2024/03/01 04:07:35;;;;;;;1.00;0.77;;;8.00;91.80;;;;;;5136603;27;20481;-73
2024/03/01 04:10:05;;;;;;;1.38;0.77;;;8.00;91.80;;;;;;5155138;27;20054;-73
2024/03/01 04:12:30;;;;;;;0.90;0.70;;;8.00;91.80;;;;;;5155684;27;20039;-73
2024/03/01 04:14:56;;;;;;;1.02;0.75;;;8.00;91.80;;;;;;5155319;27;20031;-73
2024/03/01 04:17:22;;;;;;;0.82;0.80;;;8.00;91.80;;;;;;5155165;27;20409;-73
2024/03/01 04:19:47;;;;;;;1.88;1.00;;;8.10;91.80;;;;;;5136707;27;20050;-73
2024/03/01 04:22:13;;;;;;;1.33;0.90;;;8.00;91.80;;;;;;5155160;27;20056;-73
2024/03/01 04:24:39;;;;;;;1.60;1.00;;;8.00;91.80;;;;;;5136445;27;20034;-74
2024/03/01 04:27:05;;;;;;;2.28;1.20;;;8.00;91.80;;;;;;5155475;27;20095;-73
2024/03/01 04:29:30;;;;;;;2.15;1.15;;;8.20;91.90;;;;;;5136368;27;20489;-73
2024/03/01 04:31:56;;;;;;;1.38;1.08;;;8.40;91.80;;;;;;5154826;27;20091;-73
2024/03/01 04:34:22;;;;;;;1.92;1.20;;;8.50;91.60;;;;;;5119135;27;20541;-73
2024/03/01 04:36:48;;;;;;;1.27;0.90;;;8.50;91.40;;;;;;5155206;27;20099;-73
2024/03/01 04:39:14;;;;;;;1.85;0.90;;;8.50;91.30;;;;;;5136220;27;20053;-73
2024/03/01 04:41:40;;;;;;;1.17;0.90;;;8.50;91.30;;;;;;5154864;27;20454;-73
2024/03/01 04:44:06;;;;;;;1.33;1.10;;;8.50;91.30;;;;;;5154192;27;20092;-73
2024/03/01 04:46:32;;;;;;;1.02;0.90;;;8.50;91.40;;;;;;5135901;27;20042;-73
2024/03/01 04:48:58;;;;;;;1.48;0.80;;;8.40;91.40;;;;;;5117796;27;20389;-74
2024/03/01 04:51:24;;;;;;;1.42;1.00;;;8.40;91.50;;;;;;5136598;27;20062;-74
2024/03/01 04:53:50;;;;;;;1.67;1.02;;;8.30;91.60;;;;;;5154546;27;20401;-73
2024/03/01 04:56:17;;;;;;;0.90;0.80;;;8.20;91.60;;;;;;5135892;27;20046;-73
2024/03/01 04:58:43;;;;;;;1.08;0.73;;;8.10;91.70;;;;;;5135825;27;20039;-73
2024/03/01 05:01:10;;;;;;;1.45;0.98;;;8.10;91.80;;;;;;5136531;27;20035;-74
2024/03/01 05:03:36;;;;;;;0.90;0.80;;;8.00;91.90;;;;;;5154657;27;20039;-73
2024/03/01 05:06:04;;;;;;;0.75;0.70;;;8.00;91.90;;;;;;5154768;27;20095;-74
2024/03/01 05:08:32;;;;;;;1.02;0.60;;;7.90;92.00;;;;;;5136185;27;20035;-74
2024/03/01 05:10:57;;;;;;;0.68;0.57;;;7.90;92.00;;;;;;5154390;27;20091;-73
2024/03/01 05:13:23;;;;;;;0.57;0.50;;;7.90;92.10;;;;;;5133802;27;20038;-73
2024/03/01 05:15:49;;;;;;;1.10;0.68;;;7.90;92.10;;;;;;5154199;27;20053;-73
2024/03/01 05:18:15;;;;;;;0.93;0.70;;;7.80;92.20;;;;;;5154203;27;20043;-74
2024/03/01 05:20:41;;;;;;;0.35;0.35;;;7.80;92.20;;;;;;5154452;27;20035;-73
2024/03/01 05:23:07;;;;;;;0.57;0.50;;;7.70;92.20;;;;;;5136047;27;20038;-74
2024/03/01 05:25:33;;;;;;;0.70;0.57;;;7.70;92.30;;;;;;5154001;27;20394;-73
2024/03/01 05:27:59;;;;;;;0.52;0.52;;;7.70;92.30;;;;;;5154227;27;20058;-73
2024/03/01 05:30:26;;;;;;;0.57;0.50;;;7.70;92.30;;;;;;5154624;27;20062;-74
2024/03/01 05:32:52;;;;;;;2.40;0.82;;;7.60;92.30;;;;;;5154739;27;20039;-74
2024/03/01 05:35:20;;;;;;;2.00;0.70;;;7.50;92.30;;;;;;5154598;27;20042;-74
2024/03/01 05:37:46;;;;;;;0.82;0.63;;;7.50;92.40;;;;;;5154315;27;20481;-74
2024/03/01 05:40:15;;;;;;;0.77;0.75;;;7.40;92.40;;;;;;5133578;27;20607;-74
2024/03/01 05:42:42;;;;;;;2.25;0.80;;;7.40;92.40;;;;;;5153838;27;20054;-73
2024/03/01 05:45:09;;;;;;;0.80;0.70;;;7.30;92.40;;;;;;5154054;27;20087;-73
2024/03/01 05:47:36;;;;;;;0.85;0.77;;;7.40;92.40;;;;;;5135309;27;20046;-73
2024/03/01 05:50:04;;;;;;;1.85;0.70;;;7.30;92.40;;;;;;5154424;27;20047;-73
2024/03/01 05:52:32;;;;;;;0.70;0.70;;;7.30;92.40;;;;;;5135371;27;20134;-73
2024/03/01 05:54:58;;;;;;;0.60;0.50;;;7.30;92.40;;;;;;5153504;27;20034;-73
2024/03/01 05:57:25;;;;;;;1.45;0.70;;;7.20;92.40;;;;;;5153908;27;20124;-74
2024/03/01 05:59:50;;;;;;;0.85;0.60;;;7.30;92.50;;;;;;5153940;27;20042;-73
2024/03/01 06:02:16;;;;;;;1.13;0.75;;;7.30;92.50;;;;;;5153664;27;20042;-73
2024/03/01 06:04:42;;;;;;;0.75;0.52;;;7.30;92.50;;;;;;5135009;27;20422;-73
2024/03/01 06:07:08;;;;;;;1.27;0.52;;;7.30;92.50;;;;;;5153899;27;20061;-73
2024/03/01 06:09:34;;;;;;;1.30;0.80;;;7.20;92.40;;;;;;5133680;27;20035;-73
2024/03/01 06:12:01;;;;;;;0.73;0.60;;;7.20;92.40;;;;;;5153657;27;20038;-73
2024/03/01 06:14:27;;;;;;;0.55;0.55;;;7.30;92.50;;;;;;5135088;27;20042;-73
2024/03/01 06:16:53;;;;;;;0.60;0.60;;;7.20;92.40;;;;;;5153665;27;20035;-73
2024/03/01 06:19:18;;;;;;;0.63;0.50;;;7.20;92.40;;;;;;5134735;27;20042;-73
2024/03/01 06:21:44;;;;;;;1.13;0.63;;;7.30;92.50;;;;;;5135562;27;20389;-72
2024/03/01 06:24:10;;;;;;;0.75;0.63;;;7.30;92.50;;;;;;5153423;27;20039;-73
2024/03/01 06:26:35;;;;;;;2.65;0.70;;;7.30;92.50;;;;;;5135069;27;20046;-73
2024/03/01 06:29:01;;;;;;;0.80;0.60;;;7.30;92.50;;;;;;5153551;27;20043;-73
2024/03/01 06:31:28;;;;;;;1.30;0.80;;;7.20;92.40;;;;;;5135152;27;20038;-74
2024/03/01 06:33:54;;;;;;;1.10;0.88;;;7.20;92.50;;;;;;5153321;27;20047;-73
2024/03/01 06:36:20;;;;;;;0.95;0.88;;;7.20;92.50;;;;;;5153490;27;20038;-73
2024/03/01 06:38:46;;;;;;;1.60;0.90;;;7.20;92.50;;;;;;5153766;27;20126;-73
2024/03/01 06:41:13;;;;;;;1.30;0.80;;;7.20;92.50;;;;;;5153355;27;20049;-73
2024/03/01 06:43:39;;;;;;;1.00;0.70;;;7.20;92.50;;;;;;5153109;27;20038;-73
2024/03/01 06:46:07;;;;;;;0.50;0.50;;;7.20;92.50;;;;;;5153062;27;20035;-73
2024/03/01 06:48:33;;;;;;;2.10;0.55;;;7.20;92.50;;;;;;5153735;27;20043;-73
2024/03/01 06:50:59;;;;;;;0.55;0.55;;;7.20;92.50;;;;;;5153091;27;20068;-73
2024/03/01 06:53:27;;;;;;;0.55;0.40;;;7.20;92.70;;;;;;5153425;27;20489;-73
2024/03/01 06:55:52;;;;;;;0.57;0.40;;;7.20;92.50;;;;;;5153683;27;20118;-73
2024/03/01 06:58:18;;;;;;;0.57;0.47;;;7.20;92.50;;;;;;5153634;27;20134;-73
2024/03/01 07:00:47;;;;;;;0.93;0.47;;;7.20;92.40;;;;;;5118017;27;20042;-73
2024/03/01 07:03:14;;;;;;;1.92;0.60;;;7.30;92.50;;;;;;5134466;27;20484;-73
2024/03/01 07:05:40;;;;;;;0.45;0.45;;;7.30;92.50;;;;;;5134011;27;20042;-74
2024/03/01 07:08:06;;;;;;;0.52;0.50;;;7.20;92.40;;;;;;5157545;27;20038;-73
2024/03/01 07:10:32;;;;;;;1.50;0.60;;;7.20;92.40;;;;;;5138491;27;20031;-73
2024/03/01 07:12:58;;;;;;;1.63;0.68;;;7.20;92.40;;;;;;5121475;27;20045;-73
2024/03/01 07:15:25;;;;;;;0.40;0.30;;;7.20;92.40;;;;;;5156981;27;20137;-73
2024/03/01 07:17:52;;;;;;;0.70;0.47;;;7.20;92.40;;;;;;5156946;27;20035;-73
2024/03/01 07:20:18;;;;;;;0.60;0.50;;;7.20;92.40;;;;;;5156814;27;20500;-73
2024/03/01 07:22:44;;;;;;;0.70;0.50;;;7.20;92.40;;;;;;5136990;27;20035;-73
2024/03/01 07:25:10;;;;;;;0.88;0.60;;;7.20;92.40;;;;;;5156099;27;20034;-73
2024/03/01 07:27:36;;;;;;;1.35;0.70;;;7.20;92.40;;;;;;5156940;27;20027;-73
2024/03/01 07:30:04;;;;;;;2.13;0.77;;;7.20;92.40;;;;;;5137907;27;21477;-74
2024/03/01 07:32:31;;;;;;;0.93;0.60;;;7.20;92.40;;;;;;5156903;27;20038;-73
2024/03/01 07:34:57;;;;;;;0.85;0.68;;;7.20;92.40;;;;;;5156335;27;20046;-73
2024/03/01 07:37:23;;;;;;;1.95;0.80;;;7.20;92.40;;;;;;5135792;27;20046;-73
2024/03/01 07:39:48;;;;;;;1.17;0.70;;;7.20;92.40;;;;;;5156376;27;20043;-74
2024/03/01 07:42:15;;;;;;;1.00;0.70;;;7.20;92.30;;;;;;5120574;27;20469;-74
2024/03/01 07:44:40;;;;;;;1.10;0.70;;;7.20;92.40;;;;;;5136675;27;20039;-74
2024/03/01 07:47:06;;;;;;;1.02;0.70;;;7.20;92.40;;;;;;5156889;27;20374;-74
2024/03/01 07:49:33;;;;;;;0.85;0.68;;;7.20;92.40;;;;;;5156594;27;20046;-74
2024/03/01 07:51:58;;;;;;;0.93;0.70;;;7.20;92.40;;;;;;5158181;27;20062;-74
2024/03/01 07:54:27;;;;;;;1.25;0.70;;;7.20;92.30;;;;;;5157827;27;20091;-74
2024/03/01 07:56:53;;;;;;;0.85;0.70;;;7.20;92.30;;;;;;5139493;27;20072;-74
2024/03/01 07:59:19;;;;;;;1.27;0.77;;;7.20;92.30;;;;;;5157156;27;20039;-74
2024/03/01 08:01:45;;;;;;;1.17;0.82;;;7.20;92.30;;;;;;5137789;27;20043;-74
2024/03/01 08:04:11;;;;;;;1.90;0.63;;;7.20;92.30;;;;;;5137323;27;20076;-73
2024/03/01 08:06:38;;;;;;;1.60;0.70;;;7.20;92.30;;;;;;5120202;27;20031;-74
2024/03/01 08:09:04;;;;;;;1.73;0.88;;;7.20;92.30;;;;;;5156347;27;20042;-74
2024/03/01 08:11:44;;;;;;;1.10;0.75;;;7.20;92.30;;;;;;5120022;27;20089;-73
2024/03/01 08:14:22;;;;;;;1.77;0.82;;;7.20;92.30;;;;;;5156130;27;20046;-74
2024/03/01 08:16:51;;;;;;;1.35;0.90;;;7.30;92.30;;;;;;5138214;27;20045;-73
2024/03/01 08:19:17;;;;;;;1.38;0.90;;;7.30;92.30;;;;;;5118769;27;20062;-73
2024/03/01 08:21:43;;;;;;;1.13;0.70;;;7.40;92.30;;;;;;5119637;27;20477;-74
2024/03/01 08:24:28;;;;;;;1.83;1.10;;;7.40;92.50;;;;;;5136927;27;20469;-73
2024/03/01 08:26:54;;;;;;;1.70;1.02;;;7.40;92.20;;;;;;5135977;27;20393;-74
2024/03/01 08:29:20;;;;;;;2.15;1.40;;;7.40;92.20;;;;;;5102382;27;20035;-73
2024/03/01 08:31:46;;;;;;;2.97;1.60;;;7.50;92.20;;;;;;5155509;27;20566;-72
2024/03/01 08:34:37;;;;;;;3.42;1.80;;;7.60;92.20;;;;;;5119521;27;20151;-72
2024/03/01 08:37:04;;;;;;;2.92;1.50;;;7.70;92.10;;;;;;5137344;27;20462;-73
2024/03/01 08:39:30;;;;;;;1.92;1.30;;;7.70;92.00;;;;;;5136435;27;20087;-73
2024/03/01 08:42:01;;;;;;;3.00;1.55;;;7.80;91.90;;;;;;5102523;27;20066;-72
2024/03/01 08:44:54;;;;;;;3.50;1.70;;;7.80;91.90;;;;;;5119529;27;20474;-73
2024/03/01 08:47:32;;;;;;;3.72;2.10;;;7.80;91.80;;;;;;5123454;27;20045;-72
2024/03/01 08:50:32;;;;;;;3.65;1.83;;;7.80;91.80;;;;;;5120450;27;20046;-72
2024/03/01 08:53:00;;;;;;;2.63;1.67;;;7.80;91.70;;;;;;5136100;27;20034;-73
2024/03/01 08:55:49;;;;;;;2.85;1.60;;;7.80;91.80;;;;;;5136617;27;20054;-73
2024/03/01 08:58:22;;;;;;;3.33;1.55;;;7.90;91.80;;;;;;5091140;27;20046;-76
2024/03/01 09:00:52;;;;;;;2.17;1.50;;;7.90;91.80;;;;;;5102866;27;20062;-74
2024/03/01 09:03:23;;;;;;;3.58;1.55;;;8.00;91.80;;;;;;5134735;27;20383;-74
2024/03/01 09:05:51;;;;;;;4.25;1.63;;;8.10;91.60;;;;;;5103673;27;20122;-74
2024/03/01 09:08:30;;;;;;;2.97;1.83;;;8.10;91.60;;;;;;5119878;27;20451;-74
2024/03/01 09:10:57;;;;;;;2.58;1.65;;;8.10;91.50;;;;;;5119245;27;20035;-73
2024/03/01 09:13:25;;;;;;;3.83;2.20;;;8.00;91.50;;;;;;5102006;27;20034;-75
2024/03/01 09:15:53;;;;;;;2.25;1.52;;;8.00;91.50;;;;;;5102157;27;20030;-73
2024/03/01 09:18:55;;;;;;;3.03;1.90;;;8.00;91.50;;;;;;5117473;27;20122;-73
2024/03/01 09:21:39;;;;;;;1.73;1.40;;;7.90;91.70;;;;;;5106466;27;20039;-73
2024/03/01 09:24:05;;;;;;;4.10;1.80;;;8.00;91.70;;;;;;5116768;27;20110;-73
2024/03/01 09:26:31;;;;;;;2.47;1.63;;;8.10;91.60;;;;;;5118666;27;20035;-74
2024/03/01 09:29:02;;;;;;;3.75;1.77;;;8.10;91.60;;;;;;5118784;27;20065;-73
2024/03/01 09:31:31;;;;;;;3.25;1.67;;;8.10;91.60;;;;;;5101187;27;20034;-73
2024/03/01 09:34:00;;;;;;;2.85;1.55;;;8.10;91.50;;;;;;5118231;27;20184;-73
2024/03/01 09:36:26;;;;;;;2.08;1.38;;;8.20;91.50;;;;;;5123791;27;20049;-76
2024/03/01 09:38:54;;;;;;;2.53;1.40;;;8.30;91.50;;;;;;5103367;27;20034;-74
2024/03/01 09:41:43;;;;;;;2.40;1.40;;;8.30;91.50;;;;;;5119098;27;20401;-73
2024/03/01 09:44:37;;;;;;;2.28;1.30;;;8.30;91.40;;;;;;5134282;27;20058;-75
2024/03/01 09:47:15;;;;;;;1.75;1.20;;;8.30;91.30;;;;;;5154252;27;20043;-74
2024/03/01 09:50:10;;;;;;;2.60;1.40;;;8.40;91.30;;;;;;5102344;27;20038;-74
2024/03/01 09:53:12;;;;;;;1.50;1.13;;;8.40;91.30;;;;;;5118080;27;20478;-74
2024/03/01 09:55:59;;;;;;;1.90;1.20;;;8.50;91.30;;;;;;5123660;27;20393;-74
2024/03/01 09:58:38;;;;;;;2.25;1.23;;;8.60;91.20;;;;;;5135282;27;20038;-74
2024/03/01 10:01:15;;;;;;;2.15;1.10;;;8.70;91.20;;;;;;5117206;27;20472;-74
2024/03/01 10:04:02;;;;;;;2.50;1.10;;;8.90;91.10;;;;;;5119705;27;20039;-74
2024/03/01 10:06:56;;;;;;;1.25;0.82;;;9.00;90.90;;;;;;5103592;27;20076;-74
2024/03/01 10:09:48;;;;;;;2.17;0.95;;;8.90;90.80;;;;;;5117853;27;20557;-74
2024/03/01 10:12:25;;;;;;;;;;;8.90;90.80;;;;;;5153922;27;20095;-74
2024/03/01 10:15:00;;;;;;;2.65;0.85;;;8.90;90.90;;;;;;5153775;27;19960;-74
2024/03/01 10:17:46;;;;;;;1.15;0.88;;;8.90;90.90;;;;;;5150040;27;20035;-74
2024/03/01 10:20:37;;;;;;;2.22;1.10;;;8.80;90.90;;;;;;5118081;27;20462;-74
2024/03/01 10:23:38;;;;;;;1.27;0.80;;;8.80;90.90;;;;;;5153512;27;20030;-74
2024/03/01 10:26:11;;;;;;;1.83;1.13;;;8.90;90.90;;;;;;5153433;27;20035;-73
2024/03/01 10:29:09;;;;;;;1.52;0.95;;;8.90;90.90;;;;;;5134942;27;20042;-74
2024/03/01 10:32:03;;;;;;;1.35;0.93;;;8.90;90.80;;;;;;5133887;27;20039;-73
2024/03/01 10:35:02;;;;;;;2.40;0.85;;;8.90;90.80;;;;;;5138477;27;20031;-72
2024/03/01 10:37:58;;;;;;;1.48;0.95;;;9.00;90.70;;;;;;5122434;27;20046;-72
2024/03/01 10:40:25;;;;;;;1.50;0.80;;;9.10;90.60;;;;;;5153841;27;20394;-71
2024/03/01 10:43:15;;;;;;;1.05;0.80;;;9.10;90.60;;;;;;5121336;27;20046;-72
2024/03/01 10:45:55;;;;;;;1.08;0.80;;;9.30;90.50;;;;;;5109795;27;20038;-71
2024/03/01 10:48:20;;;;;;;1.30;0.70;;;9.50;90.40;;;;;;5138618;27;20090;-71
2024/03/01 10:50:54;;;;;;;2.13;1.23;;;9.60;90.30;;;;;;5156710;27;20125;-71
2024/03/01 10:53:29;;;;;;;3.17;0.98;;;9.70;90.10;;;;;;5156963;27;20150;-72
2024/03/01 10:56:03;;;;;;;2.33;1.20;;;9.80;90.00;;;;;;5121548;27;20141;-73
2024/03/01 10:58:45;;;;;;;1.75;1.10;;;9.90;89.90;;;;;;5153230;27;20050;-73
2024/03/01 11:01:33;;;;;;;1.25;0.77;;;10.00;89.60;;;;;;5137804;27;20053;-73
2024/03/01 11:04:20;;;;;;;1.63;1.05;;;10.00;89.50;;;;;;5138032;27;20043;-73
2024/03/01 11:07:14;;;;;;;1.35;0.90;;;10.00;89.30;;;;;;5156494;27;20474;-73
2024/03/01 11:09:50;;;;;;;2.10;0.80;;;10.00;89.40;;;;;;5138012;27;20055;-73
2024/03/01 11:12:26;;;;;;;1.45;0.82;;;10.00;89.40;;;;;;5121978;27;20083;-73
2024/03/01 11:15:00;;;;;;;2.13;1.05;;;9.90;89.30;;;;;;5136468;27;20050;-73
2024/03/01 11:17:28;;;;;;;0.70;0.70;;;9.90;89.30;;;;;;5137848;27;20107;-73
2024/03/01 11:20:01;;;;;;;0.90;0.60;;;9.90;89.70;;;;;;5120076;27;20039;-73
2024/03/01 11:22:29;;;;;;;1.38;0.93;;;9.90;89.40;;;;;;5156616;27;20043;-72
2024/03/01 11:25:15;;;;;;;1.65;0.90;;;9.90;89.30;;;;;;5138320;27;20126;-73
2024/03/01 11:27:48;;;;;;;1.60;0.80;;;9.80;89.50;;;;;;5156141;27;20098;-72
2024/03/01 11:30:20;;;;;;;1.35;0.90;;;9.90;89.60;;;;;;5138795;27;20071;-72
2024/03/01 11:32:52;;;;;;;1.08;0.70;;;9.90;89.60;;;;;;5118459;27;20035;-72
2024/03/01 11:35:29;;;;;;;1.52;0.73;;;10.00;89.40;;;;;;5137578;27;20164;-73
2024/03/01 11:38:06;;;;;;;1.55;0.75;;;10.00;89.00;;;;;;5119961;27;20039;-72
2024/03/01 11:41:04;;;;;;;0.88;0.60;;;9.90;89.00;;;;;;5104075;27;20035;-72
2024/03/01 11:44:02;;;;;;;1.38;0.90;;;10.00;89.10;;;;;;5142263;27;20034;-72
2024/03/01 11:47:00;;;;;;;0.93;0.82;;;10.10;88.90;;;;;;5142393;27;20058;-72
2024/03/01 11:50:06;;;;;;;0.82;0.70;;;10.10;88.80;;;;;;5137365;27;20046;-72
2024/03/01 11:52:58;;;;;;;0.93;0.70;;;10.20;89.00;;;;;;5155576;27;20496;-72
2024/03/01 11:55:54;;;;;;;2.63;0.73;;;10.30;88.60;;;;;;5155766;27;20048;-72
2024/03/01 11:58:30;;;;;;;0.82;0.60;;;10.30;88.30;;;;;;5151874;27;20039;-72
2024/03/01 12:01:24;;;;;;;0.90;0.55;;;10.40;88.20;;;;;;5155614;27;20435;-73
2024/03/01 12:04:23;;;;;;;0.40;0.40;;;10.40;88.20;;;;;;5120145;27;20097;-73
2024/03/01 12:07:13;;;;;;;0.70;0.43;;;10.40;88.10;;;;;;5122844;27;20091;-72
2024/03/01 12:09:55;;;;;;;0.40;0.30;;;10.40;87.90;;;;;;5137164;27;20045;-72
2024/03/01 12:12:41;;;;;;;0.50;0.40;;;10.60;88.00;;;;;;5138511;27;20585;-72
2024/03/01 12:15:10;;;;;;;0.80;0.63;;;10.70;87.90;;;;;;5138599;27;20083;-71
2024/03/01 12:18:13;;;;;;;0.88;0.40;;;10.70;87.70;;;;;;5136806;27;20042;-72
2024/03/01 12:20:56;;;;;;;0.95;0.55;;;10.80;87.50;;;;;;5136659;27;20042;-73
2024/03/01 12:23:47;;;;;;;0.38;0.30;;;10.90;87.20;;;;;;5138252;27;20034;-73
2024/03/01 12:26:16;;;;;;;0.50;0.40;;;11.00;87.20;;;;;;5136720;27;20058;-73
2024/03/01 12:29:01;;;;;;;1.42;0.60;;;11.10;87.00;;;;;;5120211;27;20038;-73
2024/03/01 12:31:39;;;;;;;0.30;0.30;;;11.20;86.80;;;;;;5134303;27;20134;-73
2024/03/01 12:34:25;;;;;;;0.20;0.20;;;11.20;86.50;;;;;;5155844;27;20503;-73
2024/03/01 12:37:12;;;;;;;1.00;0.70;;;11.20;86.30;;;;;;5155581;27;20062;-72
2024/03/01 12:39:42;;;;;;;0.40;0.40;;;11.20;86.50;;;;;;5155412;27;20061;-73
2024/03/01 12:42:21;;;;;;;0.47;0.45;;;11.10;86.50;;;;;;5117905;27;20068;-72
2024/03/01 12:45:12;;;;;;;0.55;0.30;;;11.10;86.70;;;;;;5119288;27;20042;-73
2024/03/01 12:47:53;;;;;;;0.57;0.55;;;11.10;86.70;;;;;;5136470;27;20070;-73
2024/03/01 12:50:40;;;;;;;0.40;0.40;;;10.90;86.60;;;;;;5119423;27;20049;-72
2024/03/01 12:53:36;;;;;;;0.65;0.50;;;10.90;86.90;;;;;;5136200;27;20074;-73
2024/03/01 12:56:21;;;;;;;0.40;0.32;;;10.80;87.00;;;;;;5136163;27;20435;-73
2024/03/01 12:59:10;;;;;;;0.38;0.30;;;10.80;87.70;;;;;;5120476;27;20042;-72
2024/03/01 13:01:52;;;;;;;0.40;0.40;;;10.80;87.10;;;;;;5120506;27;20043;-73
2024/03/01 13:04:46;;;;;;;0.40;0.35;;;10.90;87.00;;;;;;5117994;27;20034;-73
2024/03/01 13:07:14;;;;;;;0.20;0.20;;;10.80;86.90;;;;;;5134150;27;20120;-73
2024/03/01 13:09:48;;;;;;;0.30;0.30;;;10.80;86.90;;;;;;5135896;27;20041;-72
2024/03/01 13:12:22;;;;;;;0.22;0.20;;;10.90;86.90;;;;;;5154560;27;20050;-72
2024/03/01 13:15:07;;;;;;;0.68;0.30;;;10.80;86.80;;;;;;5133631;27;20051;-72
2024/03/01 13:18:08;;;;;;;0.20;0.20;;;10.80;86.80;;;;;;5135911;27;20030;-73